createdAt,value
2023-04-24T00:01:26.557Z,57.97
2023-04-24T00:03:54.050Z,57.99
2023-04-24T00:06:21.735Z,58.16
2023-04-24T00:08:48.896Z,57.99
2023-04-24T00:11:16.385Z,58.56
2023-04-24T00:13:43.690Z,58.49
2023-04-24T00:16:10.969Z,58.86
2023-04-24T00:18:38.330Z,59.06
2023-04-24T00:21:06.095Z,59.06
2023-04-24T00:23:33.370Z,59.04
2023-04-24T00:26:00.562Z,59.03
2023-04-24T00:28:28.047Z,58.87
2023-04-24T00:30:55.444Z,59.20
2023-04-24T00:33:22.923Z,59.10
2023-04-24T00:35:50.218Z,58.86
2023-04-24T00:38:17.482Z,58.95
2023-04-24T00:40:44.793Z,59.03
2023-04-24T00:43:12.437Z,58.87
2023-04-24T00:45:39.728Z,58.70
2023-04-24T00:48:08.231Z,58.63
2023-04-24T00:50:39.005Z,58.71
2023-04-24T00:53:06.314Z,58.92
2023-04-24T00:55:34.143Z,59.46
2023-04-24T00:58:01.460Z,59.15
2023-04-24T01:00:28.862Z,59.25
2023-04-24T01:02:59.142Z,59.35
2023-04-24T01:05:27.336Z,59.26
2023-04-24T01:07:54.734Z,59.09
2023-04-24T01:10:22.221Z,58.91
2023-04-24T01:12:49.544Z,59.32
2023-04-24T01:15:16.865Z,58.91
2023-04-24T01:17:44.428Z,58.31
2023-04-24T01:20:11.793Z,58.05
2023-04-24T01:22:39.078Z,58.38
2023-04-24T01:25:06.995Z,58.22
2023-04-24T01:27:34.466Z,57.85
2023-04-24T01:30:02.543Z,58.40
2023-04-24T01:32:30.555Z,58.68
2023-04-24T01:34:58.594Z,59.05
2023-04-24T01:37:25.972Z,59.27
2023-04-24T01:39:53.562Z,59.42
2023-04-24T01:42:21.094Z,59.41
2023-04-24T01:44:48.684Z,59.42
2023-04-24T01:47:16.549Z,59.56
2023-04-24T01:49:44.037Z,59.71
2023-04-24T01:52:11.702Z,59.70
2023-04-24T01:54:38.893Z,59.89
2023-04-24T01:57:07.045Z,60.00
2023-04-24T01:59:35.864Z,59.90
2023-04-24T02:02:04.006Z,60.13
2023-04-24T02:04:31.312Z,60.03
2023-04-24T02:06:58.629Z,60.16
2023-04-24T02:09:25.914Z,60.06
2023-04-24T02:11:53.222Z,59.97
2023-04-24T02:14:20.725Z,60.46
2023-04-24T02:16:48.049Z,60.46
2023-04-24T02:19:15.415Z,60.81
2023-04-24T02:21:42.732Z,60.92
2023-04-24T02:24:10.387Z,60.98
2023-04-24T02:26:37.745Z,60.91
2023-04-24T02:29:05.152Z,61.01
2023-04-24T02:31:32.537Z,60.98
2023-04-24T02:33:59.848Z,60.93
2023-04-24T02:36:27.096Z,61.31
2023-04-24T02:38:54.405Z,61.03
2023-04-24T02:41:21.664Z,60.92
2023-04-24T02:43:49.150Z,60.89
2023-04-24T02:46:16.562Z,60.94
2023-04-24T02:48:43.800Z,61.13
2023-04-24T02:51:11.029Z,61.24
2023-04-24T02:53:38.310Z,61.25
2023-04-24T02:56:05.708Z,61.09
2023-04-24T02:58:33.173Z,60.92
2023-04-24T03:01:00.894Z,61.11
2023-04-24T03:03:28.384Z,61.13
2023-04-24T03:05:55.701Z,61.12
2023-04-24T03:08:23.255Z,61.30
2023-04-24T03:10:50.621Z,61.14
2023-04-24T03:13:19.608Z,61.22
2023-04-24T03:15:46.835Z,61.21
2023-04-24T03:18:14.165Z,61.32
2023-04-24T03:20:41.651Z,61.20
2023-04-24T03:23:09.113Z,61.24
2023-04-24T03:25:36.618Z,61.44
2023-04-24T03:28:03.892Z,61.52
2023-04-24T03:30:31.157Z,61.54
2023-04-24T03:32:58.713Z,61.15
2023-04-24T03:35:26.171Z,61.56
2023-04-24T03:37:53.501Z,61.71
2023-04-24T03:40:20.779Z,61.68
2023-04-24T03:42:48.012Z,61.88
2023-04-24T03:45:15.279Z,61.85
2023-04-24T03:47:42.726Z,61.75
2023-04-24T03:50:12.950Z,61.91
2023-04-24T03:52:40.389Z,61.91
2023-04-24T03:55:08.489Z,61.42
2023-04-24T03:57:35.757Z,61.13
2023-04-24T04:00:03.178Z,60.31
2023-04-24T04:02:30.791Z,59.72
2023-04-24T04:04:58.184Z,59.49
2023-04-24T04:07:25.466Z,59.42
2023-04-24T04:09:52.763Z,59.44
2023-04-24T04:12:20.201Z,59.57
2023-04-24T04:14:47.426Z,59.75
2023-04-24T04:17:14.825Z,60.20
2023-04-24T04:19:42.389Z,60.18
2023-04-24T04:22:09.799Z,60.19
2023-04-24T04:24:37.136Z,60.29
2023-04-24T04:27:05.777Z,60.42
2023-04-24T04:29:33.321Z,60.39
2023-04-24T04:32:00.611Z,60.55
2023-04-24T04:34:27.949Z,60.44
2023-04-24T04:36:55.157Z,60.72
2023-04-24T04:39:22.580Z,60.86
2023-04-24T04:41:50.043Z,60.63
2023-04-24T04:44:17.537Z,60.73
2023-04-24T04:46:45.112Z,61.04
2023-04-24T04:49:12.446Z,60.98
2023-04-24T04:51:41.219Z,61.11
2023-04-24T04:54:10.164Z,61.11
2023-04-24T04:56:37.778Z,61.27
2023-04-24T04:59:05.312Z,61.14
2023-04-24T05:01:32.909Z,61.06
2023-04-24T05:04:00.374Z,61.11
2023-04-24T05:06:28.066Z,61.65
2023-04-24T05:08:55.323Z,61.43
2023-04-24T05:11:22.673Z,61.43
2023-04-24T05:13:49.976Z,61.52
2023-04-24T05:16:17.240Z,61.88
2023-04-24T05:18:44.799Z,61.78
2023-04-24T05:21:12.140Z,61.95
2023-04-24T05:23:39.321Z,61.60
2023-04-24T05:26:07.929Z,61.48
2023-04-24T05:28:35.573Z,61.55
2023-04-24T05:31:03.266Z,61.18
2023-04-24T05:33:30.591Z,60.67
2023-04-24T05:36:00.296Z,60.43
2023-04-24T05:38:27.567Z,60.32
2023-04-24T05:40:55.206Z,59.63
2023-04-24T05:43:22.574Z,59.33
2023-04-24T05:45:49.986Z,59.41
2023-04-24T05:48:17.202Z,59.57
2023-04-24T05:50:44.546Z,59.67
2023-04-24T05:53:11.848Z,59.86
2023-04-24T05:55:39.303Z,58.44
2023-04-24T05:58:06.625Z,57.43
2023-04-24T06:00:34.579Z,57.52
2023-04-24T06:03:02.309Z,57.15
2023-04-24T06:05:29.873Z,57.77
2023-04-24T06:07:57.314Z,57.74
2023-04-24T06:10:24.813Z,57.99
2023-04-24T06:12:52.583Z,57.78
2023-04-24T06:15:19.897Z,58.27
2023-04-24T06:17:47.361Z,58.69
2023-04-24T06:20:14.769Z,58.64
2023-04-24T06:22:42.010Z,58.63
2023-04-24T06:25:09.716Z,58.70
2023-04-24T06:27:37.077Z,58.25
2023-04-24T06:30:05.171Z,58.33
2023-04-24T06:32:32.520Z,57.95
2023-04-24T06:34:59.997Z,57.99
2023-04-24T06:37:27.548Z,57.50
2023-04-24T06:39:54.877Z,56.93
2023-04-24T06:42:22.157Z,57.01
2023-04-24T06:44:49.561Z,57.03
2023-04-24T06:47:17.153Z,56.72
2023-04-24T06:49:44.626Z,56.71
2023-04-24T06:52:12.181Z,57.00
2023-04-24T06:54:39.532Z,56.81
2023-04-24T06:57:06.879Z,56.65
2023-04-24T06:59:34.481Z,56.90
2023-04-24T07:02:01.886Z,56.90
2023-04-24T07:04:29.460Z,56.50
2023-04-24T07:06:57.111Z,56.59
2023-04-24T07:09:26.396Z,56.83
2023-04-24T07:11:54.557Z,57.51
2023-04-24T07:14:22.417Z,57.83
2023-04-24T07:16:50.308Z,58.19
2023-04-24T07:19:17.554Z,58.16
2023-04-24T07:21:44.854Z,58.43
2023-04-24T07:24:12.221Z,58.27
2023-04-24T07:26:40.181Z,57.88
2023-04-24T07:29:08.599Z,57.38
2023-04-24T07:31:36.183Z,57.25
2023-04-24T07:34:03.491Z,57.41
2023-04-24T07:36:30.980Z,57.44
2023-04-24T07:38:58.275Z,56.74
2023-04-24T07:41:25.860Z,56.82
2023-04-24T07:43:53.212Z,56.58
2023-04-24T07:46:21.256Z,56.76
2023-04-24T07:48:50.014Z,57.02
2023-04-24T07:51:21.258Z,56.74
2023-04-24T07:53:48.558Z,56.95
2023-04-24T07:56:15.918Z,56.94
2023-04-24T07:58:43.128Z,57.13
2023-04-24T08:01:10.389Z,57.09
2023-04-24T08:03:37.805Z,57.06
2023-04-24T08:06:05.613Z,57.15
2023-04-24T08:08:33.186Z,57.10
2023-04-24T08:11:00.554Z,57.31
2023-04-24T08:13:27.885Z,57.31
2023-04-24T08:15:55.514Z,57.43
2023-04-24T08:18:23.415Z,57.61
2023-04-24T08:20:50.727Z,57.53
2023-04-24T08:23:17.960Z,57.57
2023-04-24T08:25:45.377Z,57.57
2023-04-24T08:28:13.808Z,57.46
2023-04-24T08:30:41.970Z,57.45
2023-04-24T08:33:09.355Z,57.55
2023-04-24T08:35:36.774Z,57.45
2023-04-24T08:38:04.313Z,57.46
2023-04-24T08:40:36.055Z,57.47
2023-04-24T08:43:04.821Z,57.49
2023-04-24T08:45:33.843Z,57.91
2023-04-24T08:48:01.813Z,57.40
2023-04-24T08:50:31.022Z,57.64
2023-04-24T08:52:59.255Z,58.20
2023-04-24T08:55:27.209Z,58.33
2023-04-24T08:57:54.858Z,58.32
2023-04-24T09:00:23.153Z,57.96
2023-04-24T09:02:51.794Z,57.74
2023-04-24T09:05:19.537Z,57.89
2023-04-24T09:07:57.406Z,57.66
2023-04-24T09:10:27.921Z,57.63
2023-04-24T09:12:57.677Z,57.22
2023-04-24T09:15:25.653Z,57.09
2023-04-24T09:17:54.290Z,56.92
2023-04-24T09:20:21.875Z,56.60
2023-04-24T09:22:49.718Z,56.16
2023-04-24T09:25:17.848Z,56.35
2023-04-24T09:27:46.736Z,56.38
2023-04-24T09:30:15.243Z,56.16
2023-04-24T09:32:43.091Z,55.83
2023-04-24T09:35:13.076Z,55.71
2023-04-24T09:37:45.657Z,56.13
2023-04-24T09:40:21.915Z,55.93
2023-04-24T09:42:58.558Z,56.14
2023-04-24T09:45:43.994Z,55.87
2023-04-24T09:48:11.864Z,55.38
2023-04-24T09:50:39.313Z,55.34
2023-04-24T09:53:07.874Z,55.49
2023-04-24T09:55:46.869Z,55.59
2023-04-24T09:58:14.323Z,55.14
2023-04-24T10:00:42.087Z,55.30
2023-04-24T10:03:09.581Z,55.81
2023-04-24T10:05:39.072Z,55.71
2023-04-24T10:08:09.643Z,55.78
2023-04-24T10:10:42.781Z,55.26
2023-04-24T10:13:15.677Z,55.13
2023-04-24T10:15:44.136Z,54.96
2023-04-24T10:18:12.317Z,54.94
2023-04-24T10:20:41.729Z,54.27
2023-04-24T10:23:09.315Z,54.30
2023-04-24T10:25:37.760Z,54.58
2023-04-24T10:28:06.071Z,55.20
2023-04-24T10:30:35.962Z,56.26
2023-04-24T10:33:09.295Z,57.07
2023-04-24T10:35:42.877Z,57.50
2023-04-24T10:38:15.091Z,57.68
2023-04-24T10:40:44.367Z,57.18
2023-04-24T10:43:18.746Z,56.82
2023-04-24T10:46:03.615Z,56.54
2023-04-24T10:48:31.683Z,56.46
2023-04-24T10:50:59.216Z,56.42
2023-04-24T10:53:30.963Z,56.49
2023-04-24T10:56:09.003Z,56.81
2023-04-24T10:58:52.423Z,56.91
2023-04-24T11:01:32.929Z,56.31
2023-04-24T11:04:04.525Z,56.14
2023-04-24T11:06:38.638Z,55.65
2023-04-24T11:09:11.708Z,55.11
2023-04-24T11:11:46.029Z,55.32
2023-04-24T11:14:17.015Z,56.16
2023-04-24T11:16:53.446Z,56.52
2023-04-24T11:19:25.356Z,55.40
2023-04-24T11:21:59.613Z,55.88
2023-04-24T11:24:41.034Z,55.62
2023-04-24T11:27:18.847Z,55.36
2023-04-24T11:29:58.797Z,55.70
2023-04-24T11:32:36.264Z,56.46
2023-04-24T11:35:19.424Z,56.45
2023-04-24T11:38:08.123Z,56.73
2023-04-24T11:40:38.234Z,56.33
2023-04-24T11:43:07.901Z,56.42
2023-04-24T11:45:35.817Z,56.54
2023-04-24T11:48:04.974Z,56.49
2023-04-24T11:50:32.548Z,57.03
2023-04-24T11:52:59.937Z,57.22
2023-04-24T11:55:30.117Z,57.28
2023-04-24T11:58:00.483Z,56.37
2023-04-24T12:00:31.717Z,56.08
2023-04-24T12:03:11.898Z,56.14
2023-04-24T12:05:41.166Z,56.19
2023-04-24T12:08:08.696Z,56.71
2023-04-24T12:10:38.210Z,56.46
2023-04-24T12:13:05.730Z,56.15
2023-04-24T12:15:33.257Z,56.55
2023-04-24T12:18:00.773Z,56.38
2023-04-24T12:20:34.087Z,56.09
2023-04-24T12:23:02.723Z,55.73
2023-04-24T12:25:34.186Z,55.47
2023-04-24T12:28:07.629Z,55.46
2023-04-24T12:30:41.653Z,55.10
2023-04-24T12:33:09.340Z,55.16
2023-04-24T12:35:36.996Z,54.26
2023-04-24T12:38:15.169Z,54.18
2023-04-24T12:40:44.731Z,53.63
2023-04-24T12:43:17.896Z,53.48
2023-04-24T12:45:45.721Z,53.13
2023-04-24T12:48:13.532Z,52.24
2023-04-24T12:50:40.972Z,52.38
2023-04-24T12:53:09.835Z,52.63
2023-04-24T12:55:38.361Z,52.78
2023-04-24T12:58:05.649Z,52.92
2023-04-24T13:00:34.072Z,53.53
2023-04-24T13:03:02.506Z,53.17
2023-04-24T13:05:30.154Z,53.85
2023-04-24T13:07:59.367Z,53.83
2023-04-24T13:10:26.905Z,53.02
2023-04-24T13:12:54.305Z,51.54
2023-04-24T13:15:22.867Z,51.24
2023-04-24T13:17:51.352Z,51.44
2023-04-24T13:20:19.458Z,52.10
2023-04-24T13:22:46.673Z,51.89
2023-04-24T13:25:13.938Z,51.90
2023-04-24T13:27:41.549Z,51.07
2023-04-24T13:30:09.735Z,51.81
2023-04-24T13:32:38.994Z,51.05
2023-04-24T13:35:06.729Z,51.23
2023-04-24T13:37:34.046Z,51.81
2023-04-24T13:40:01.420Z,51.62
2023-04-24T13:42:29.063Z,51.64
2023-04-24T13:44:56.736Z,51.68
2023-04-24T13:47:24.237Z,50.74
2023-04-24T13:49:53.992Z,50.83
2023-04-24T13:52:21.519Z,50.11
2023-04-24T13:54:48.809Z,51.00
2023-04-24T13:57:16.178Z,49.81
2023-04-24T13:59:43.788Z,50.03
2023-04-24T14:02:11.128Z,49.60
2023-04-24T14:04:38.804Z,49.19
2023-04-24T14:07:06.339Z,49.62
2023-04-24T14:09:33.563Z,47.65
2023-04-24T14:12:00.935Z,45.49
2023-04-24T14:14:28.258Z,45.17
2023-04-24T14:16:55.525Z,44.84
2023-04-24T14:19:22.816Z,44.89
2023-04-24T14:21:50.165Z,45.66
2023-04-24T14:24:17.427Z,45.65
2023-04-24T14:26:44.750Z,45.22
2023-04-24T14:29:15.475Z,44.52
2023-04-24T14:31:43.891Z,44.29
2023-04-24T14:34:11.439Z,44.95
2023-04-24T14:36:38.937Z,44.03
2023-04-24T14:39:06.817Z,43.92
2023-04-24T14:41:34.739Z,43.60
2023-04-24T14:44:03.207Z,43.73
2023-04-24T14:46:31.806Z,44.02
2023-04-24T14:48:59.983Z,43.97
2023-04-24T14:51:27.666Z,44.73
2023-04-24T14:53:55.333Z,45.75
2023-04-24T14:56:22.999Z,44.74
2023-04-24T14:58:50.955Z,44.41
2023-04-24T15:01:18.820Z,45.13
2023-04-24T15:03:46.736Z,43.05
2023-04-24T15:06:15.031Z,41.99
2023-04-24T15:08:43.061Z,41.27
2023-04-24T15:11:11.836Z,41.76
2023-04-24T15:13:39.838Z,40.97
2023-04-24T15:16:07.789Z,40.66
2023-04-24T15:18:36.023Z,42.29
2023-04-24T15:21:03.474Z,43.12
2023-04-24T15:23:30.722Z,42.84
2023-04-24T15:25:58.137Z,44.21
2023-04-24T15:28:26.277Z,44.21
2023-04-24T15:30:53.703Z,44.13
2023-04-24T15:33:21.078Z,44.73
2023-04-24T15:35:48.435Z,45.65
2023-04-24T15:38:15.956Z,45.77
2023-04-24T15:40:43.222Z,43.27
2023-04-24T15:43:10.477Z,45.13
2023-04-24T15:45:37.896Z,46.64
2023-04-24T15:48:05.281Z,46.18
2023-04-24T15:50:33.206Z,45.58
2023-04-24T15:53:00.508Z,44.54
2023-04-24T15:55:29.164Z,42.40
2023-04-24T15:57:56.572Z,39.52
2023-04-24T16:00:23.982Z,39.53
2023-04-24T16:02:51.554Z,38.56
2023-04-24T16:05:19.248Z,38.61
2023-04-24T16:07:49.020Z,38.17
2023-04-24T16:10:16.559Z,36.79
2023-04-24T16:12:43.928Z,37.93
2023-04-24T16:15:11.657Z,36.00
2023-04-24T16:17:39.155Z,36.84
2023-04-24T16:20:07.505Z,37.52
2023-04-24T16:22:35.005Z,39.02
2023-04-24T16:25:02.989Z,37.22
2023-04-24T16:27:34.462Z,37.84
2023-04-24T16:30:03.693Z,39.51
2023-04-24T16:32:31.040Z,40.94
2023-04-24T16:35:01.829Z,39.79
2023-04-24T16:37:33.409Z,41.23
2023-04-24T16:40:01.060Z,41.73
2023-04-24T16:42:29.869Z,43.57
2023-04-24T16:44:57.790Z,45.37
2023-04-24T16:47:25.730Z,46.07
2023-04-24T16:49:58.427Z,46.04
2023-04-24T16:52:26.226Z,46.79
2023-04-24T16:54:53.555Z,47.01
2023-04-24T16:57:22.295Z,47.14
2023-04-24T16:59:49.756Z,47.27
2023-04-24T17:02:17.149Z,47.02
2023-04-24T17:04:45.952Z,47.05
2023-04-24T17:07:13.552Z,47.17
2023-04-24T17:09:41.081Z,47.43
2023-04-24T17:12:08.480Z,48.09
2023-04-24T17:14:35.763Z,48.30
2023-04-24T17:17:03.660Z,48.38
2023-04-24T17:19:30.969Z,48.99
2023-04-24T17:21:59.371Z,49.23
2023-04-24T17:24:26.881Z,49.55
2023-04-24T17:26:58.811Z,49.46
2023-04-24T17:29:32.672Z,49.07
2023-04-24T17:31:59.962Z,49.66
2023-04-24T17:34:28.851Z,50.29
2023-04-24T17:36:56.223Z,50.32
2023-04-24T17:39:23.812Z,50.39
2023-04-24T17:41:51.524Z,50.45
2023-04-24T17:44:18.748Z,50.67
2023-04-24T17:46:46.173Z,50.83
2023-04-24T17:49:13.492Z,51.03
2023-04-24T17:51:40.920Z,50.93
2023-04-24T17:54:08.207Z,50.79
2023-04-24T17:56:35.739Z,51.11
2023-04-24T17:59:03.307Z,51.23
2023-04-24T18:01:30.846Z,51.23
2023-04-24T18:03:58.423Z,50.73
2023-04-24T18:06:25.921Z,50.63
2023-04-24T18:08:53.177Z,50.91
2023-04-24T18:11:21.068Z,50.45
2023-04-24T18:13:48.776Z,50.72
2023-04-24T18:16:16.278Z,50.77
2023-04-24T18:18:43.619Z,51.10
2023-04-24T18:21:11.150Z,51.31
2023-04-24T18:23:38.873Z,51.23
2023-04-24T18:26:06.462Z,51.37
2023-04-24T18:28:33.913Z,51.43
2023-04-24T18:31:01.919Z,51.37
2023-04-24T18:33:29.563Z,51.57
2023-04-24T18:35:57.060Z,51.55
2023-04-24T18:38:25.278Z,51.41
2023-04-24T18:40:52.883Z,51.65
2023-04-24T18:43:20.544Z,51.76
2023-04-24T18:45:47.872Z,51.61
2023-04-24T18:48:15.275Z,51.38
2023-04-24T18:50:42.721Z,51.26
2023-04-24T18:53:09.947Z,51.70
2023-04-24T18:55:37.281Z,51.84
2023-04-24T18:58:04.511Z,51.92
2023-04-24T19:00:31.998Z,51.93
2023-04-24T19:02:59.731Z,52.35
2023-04-24T19:05:27.045Z,52.39
2023-04-24T19:07:54.377Z,52.08
2023-04-24T19:10:21.643Z,51.97
2023-04-24T19:12:49.189Z,52.14
2023-04-24T19:15:16.763Z,52.36
2023-04-24T19:17:44.301Z,52.20
2023-04-24T19:20:12.144Z,51.98
2023-04-24T19:22:39.912Z,52.27
2023-04-24T19:25:07.748Z,52.40
2023-04-24T19:27:35.302Z,52.59
2023-04-24T19:30:02.960Z,52.73
2023-04-24T19:32:30.334Z,52.70
2023-04-24T19:34:57.927Z,52.51
2023-04-24T19:37:25.626Z,52.48
2023-04-24T19:39:53.217Z,52.47
2023-04-24T19:42:28.422Z,52.23
2023-04-24T19:44:59.516Z,52.61
2023-04-24T19:47:26.892Z,52.78
2023-04-24T19:49:54.182Z,52.76
2023-04-24T19:52:21.550Z,52.68
2023-04-24T19:54:48.853Z,52.52
2023-04-24T19:57:16.161Z,52.63
2023-04-24T19:59:43.440Z,52.94
2023-04-24T20:02:11.968Z,52.55
2023-04-24T20:04:39.578Z,52.17
2023-04-24T20:07:06.896Z,52.43
2023-04-24T20:09:34.340Z,52.57
2023-04-24T20:12:01.888Z,52.63
2023-04-24T20:14:29.157Z,52.63
2023-04-24T20:16:56.777Z,52.52
2023-04-24T20:19:23.977Z,52.24
2023-04-24T20:21:52.223Z,52.42
2023-04-24T20:24:19.691Z,52.57
2023-04-24T20:26:46.976Z,52.55
2023-04-24T20:29:14.275Z,52.71
2023-04-24T20:31:41.785Z,52.74
2023-04-24T20:34:09.279Z,52.52
2023-04-24T20:36:36.536Z,52.71
2023-04-24T20:39:04.048Z,52.33
2023-04-24T20:41:31.377Z,52.54
2023-04-24T20:43:58.929Z,52.45
2023-04-24T20:46:26.397Z,52.70
2023-04-24T20:48:53.633Z,52.53
2023-04-24T20:51:20.947Z,52.85
2023-04-24T20:53:48.289Z,52.61
2023-04-24T20:56:19.377Z,52.41
2023-04-24T20:58:48.337Z,52.51
2023-04-24T21:01:16.367Z,52.66
2023-04-24T21:03:44.572Z,52.48
2023-04-24T21:06:12.434Z,52.72
2023-04-24T21:08:39.824Z,52.61
2023-04-24T21:11:07.228Z,52.92
2023-04-24T21:13:34.778Z,52.80
2023-04-24T21:16:02.380Z,52.97
2023-04-24T21:18:29.934Z,53.30
2023-04-24T21:20:57.267Z,53.09
2023-04-24T21:23:24.914Z,53.01
2023-04-24T21:25:52.445Z,53.17
2023-04-24T21:28:19.778Z,53.14
2023-04-24T21:30:47.154Z,53.25
2023-04-24T21:33:14.373Z,52.95
2023-04-24T21:35:41.636Z,52.93
2023-04-24T21:38:08.962Z,52.77
2023-04-24T21:40:36.233Z,52.90
2023-04-24T21:43:03.766Z,52.87
2023-04-24T21:45:31.413Z,52.83
2023-04-24T21:47:58.662Z,53.08
2023-04-24T21:50:25.999Z,52.76
2023-04-24T21:52:53.785Z,53.00
2023-04-24T21:55:21.680Z,53.23
2023-04-24T21:57:49.484Z,53.01
2023-04-24T22:00:17.330Z,53.09
2023-04-24T22:02:45.162Z,52.94
2023-04-24T22:05:12.941Z,53.13
2023-04-24T22:07:41.388Z,52.98
2023-04-24T22:10:09.286Z,53.15
2023-04-24T22:12:36.981Z,52.97
2023-04-24T22:15:05.133Z,52.98
2023-04-24T22:17:32.707Z,52.97
2023-04-24T22:20:00.576Z,53.11
2023-04-24T22:22:28.664Z,53.06
2023-04-24T22:24:56.448Z,52.94
2023-04-24T22:27:24.093Z,53.39
2023-04-24T22:29:51.705Z,53.50
2023-04-24T22:32:19.737Z,53.52
2023-04-24T22:34:47.266Z,53.34
2023-04-24T22:37:14.897Z,53.30
2023-04-24T22:39:42.457Z,53.02
2023-04-24T22:42:10.555Z,53.33
2023-04-24T22:44:38.452Z,53.25
2023-04-24T22:47:06.276Z,53.20
2023-04-24T22:49:34.805Z,53.26
2023-04-24T22:52:02.735Z,53.16
2023-04-24T22:54:31.472Z,53.25
2023-04-24T22:56:59.280Z,53.31
2023-04-24T22:59:26.929Z,53.52
2023-04-24T23:01:54.483Z,53.37
2023-04-24T23:04:22.345Z,53.07
2023-04-24T23:06:49.777Z,53.19
2023-04-24T23:09:17.603Z,54.00
2023-04-24T23:11:45.205Z,53.76
2023-04-24T23:14:12.770Z,53.54
2023-04-24T23:16:40.337Z,53.19
2023-04-24T23:19:08.207Z,53.80
2023-04-24T23:21:35.912Z,53.75
2023-04-24T23:24:04.037Z,53.81
2023-04-24T23:26:31.782Z,53.76
2023-04-24T23:28:59.551Z,53.76
2023-04-24T23:31:27.282Z,53.73
2023-04-24T23:33:54.917Z,53.86
2023-04-24T23:36:22.577Z,53.93
2023-04-24T23:38:51.010Z,54.09
2023-04-24T23:41:19.627Z,54.01
2023-04-24T23:43:47.672Z,54.09
2023-04-24T23:46:15.745Z,53.82
2023-04-24T23:48:42.957Z,53.63
2023-04-24T23:51:10.515Z,53.77
2023-04-24T23:53:37.814Z,54.19
2023-04-24T23:56:05.341Z,54.25
2023-04-24T23:58:32.598Z,53.73
